Time;durP1;ratioP1;P1;durP2;ratioP2;P2;SDS_P1;SDS_P2;PMS_P1;PMS_P2;Temp;Humidity;BMP_temperature;BMP_pressure;BME280_temperature;BME280_humidity;BME280_pressure;Samples;Min_cycle;Max_cycle;Signal;HPM_P1;HPM_P2
2024/04/16 00:01:53;;;;;;;2.78;1.40;;;15.60;99.90;;;16.63;66.78;95468.00;2361272;56;26183;-78
2024/04/16 00:04:20;;;;;;;2.33;1.33;;;15.60;99.90;;;16.33;67.30;95458.00;2360994;56;26677;-77
2024/04/16 00:06:46;;;;;;;1.62;1.50;;;15.40;99.90;;;16.13;67.77;95446.00;2361017;56;26586;-76
2024/04/16 00:09:13;;;;;;;6.65;1.60;;;15.40;99.90;;;16.18;66.93;95437.00;2361267;56;26587;-79
2024/04/16 00:11:39;;;;;;;2.65;1.33;;;15.40;99.90;;;16.25;66.92;95449.00;2360854;56;26660;-77
2024/04/16 00:14:06;;;;;;;3.78;1.20;;;15.40;99.90;;;16.10;68.10;95441.00;2361352;56;26220;-75
2024/04/16 00:16:32;;;;;;;3.13;1.30;;;15.40;99.90;;;16.10;67.94;95443.00;2361089;56;26664;-75
2024/04/16 00:18:59;;;;;;;2.97;1.35;;;15.40;99.90;;;16.27;68.16;95443.00;2361030;56;26145;-78
2024/04/16 00:21:26;;;;;;;2.58;1.50;;;15.30;99.90;;;16.21;68.75;95434.00;2361032;56;26618;-78
2024/04/16 00:23:52;;;;;;;2.37;1.58;;;15.30;99.90;;;16.14;69.03;95434.00;2360823;56;26062;-76
2024/04/16 00:26:19;;;;;;;1.60;1.17;;;15.30;99.90;;;16.24;68.95;95439.00;2361107;56;26657;-77
2024/04/16 00:28:45;;;;;;;2.47;1.60;;;15.30;99.90;;;16.16;69.20;95439.00;2361157;56;26578;-74
2024/04/16 00:31:12;;;;;;;2.33;1.52;;;15.30;99.90;;;16.20;68.84;95438.00;2361072;56;26077;-75
2024/04/16 00:33:38;;;;;;;3.40;1.50;;;15.30;99.90;;;16.17;68.95;95441.00;2361256;56;26255;-78
2024/04/16 00:36:05;;;;;;;1.70;1.42;;;15.30;99.90;;;16.18;69.38;95446.00;2361016;56;26113;-79
2024/04/16 00:38:32;;;;;;;2.37;1.55;;;15.20;99.90;;;15.95;69.63;95442.00;2361260;56;26587;-75
2024/04/16 00:40:58;;;;;;;2.58;1.60;;;15.20;99.90;;;15.77;70.15;95440.00;2361037;56;26164;-75
2024/04/16 00:43:25;;;;;;;2.35;1.65;;;15.10;99.90;;;15.99;69.52;95449.00;2361032;56;26070;-75
2024/04/16 00:45:58;;;;;;;1.92;1.30;;;15.20;99.90;;;15.98;69.76;95439.00;2360711;56;26693;-78
2024/04/16 00:48:27;;;;;;;1.95;1.73;;;15.10;99.90;;;15.89;70.42;95438.00;2361021;56;26234;-75
2024/04/16 00:50:58;;;;;;;5.15;1.77;;;15.20;99.90;;;15.91;70.19;95441.00;2360994;56;26995;-75
2024/04/16 00:53:27;;;;;;;3.33;1.52;;;15.10;99.90;;;15.93;70.47;95441.00;2360832;56;26096;-79
2024/04/16 00:55:57;;;;;;;1.58;1.20;;;15.10;99.90;;;15.94;70.25;95435.00;2361092;56;26240;-78
2024/04/16 00:58:26;;;;;;;6.43;1.50;;;15.20;99.90;;;15.87;69.10;95435.00;2360954;56;26561;-79
2024/04/16 01:00:53;;;;;;;2.60;1.48;;;15.20;99.90;;;15.92;69.04;95434.00;2360892;56;26105;-75
2024/04/16 01:03:19;;;;;;;4.68;1.70;;;15.20;99.90;;;16.08;68.90;95427.00;2361015;56;26192;-77
2024/04/16 01:05:46;;;;;;;2.83;1.50;;;15.20;99.90;;;15.99;69.05;95426.00;2361212;56;26287;-78
2024/04/16 01:08:13;;;;;;;2.80;1.70;;;15.30;99.90;;;16.05;69.34;95422.00;2361105;56;26113;-75
2024/04/16 01:10:41;;;;;;;2.05;1.67;;;15.30;99.90;;;16.05;69.67;95414.00;2360944;56;26686;-77
2024/04/16 01:13:08;;;;;;;4.53;1.67;;;15.30;99.90;;;16.03;69.30;95408.00;2361050;56;26611;-79
2024/04/16 01:15:36;;;;;;;2.95;1.30;;;15.20;99.90;;;16.05;69.60;95419.00;2360786;56;26076;-77
2024/04/16 01:18:05;;;;;;;1.85;1.37;;;15.20;99.90;;;16.02;69.97;95420.00;2360699;56;26537;-75
2024/04/16 01:20:33;;;;;;;1.90;1.23;;;15.20;99.90;;;16.07;68.30;95412.00;2361053;56;26109;-76
2024/04/16 01:23:00;;;;;;;2.75;1.52;;;15.30;99.90;;;16.28;66.95;95413.00;2361195;56;26243;-76
2024/04/16 01:25:27;;;;;;;3.53;1.60;;;15.30;99.90;;;16.10;67.47;95412.00;2361269;56;26129;-75
2024/04/16 01:27:53;;;;;;;4.47;1.25;;;15.30;99.90;;;16.10;67.41;95419.00;2361016;56;26129;-77
2024/04/16 01:30:20;;;;;;;2.50;1.50;;;15.40;99.90;;;16.15;67.07;95416.00;2360875;56;26118;-78
2024/04/16 01:32:46;;;;;;;1.75;1.40;;;15.40;99.90;;;16.25;66.65;95408.00;2360894;56;26069;-76
2024/04/16 01:35:13;;;;;;;2.35;1.67;;;15.40;99.90;;;16.19;66.76;95423.00;2361069;56;26583;-77
2024/04/16 01:37:39;;;;;;;2.53;1.27;;;15.40;99.90;;;16.16;66.33;95423.00;2360787;56;26129;-79
2024/04/16 01:40:07;;;;;;;3.92;1.45;;;15.40;99.90;;;16.16;67.21;95415.00;2361081;56;26133;-78
2024/04/16 01:42:34;;;;;;;3.25;1.62;;;15.40;99.90;;;16.26;66.61;95407.00;2360940;56;26464;-74
2024/04/16 01:45:00;;;;;;;1.62;1.27;;;15.40;99.90;;;16.22;66.55;95417.00;2360945;56;26141;-76
2024/04/16 01:47:27;;;;;;;3.42;1.40;;;15.40;99.90;;;16.28;66.74;95412.00;2360845;56;26081;-74
2024/04/16 01:49:54;;;;;;;2.57;1.60;;;15.40;99.90;;;16.24;66.58;95401.00;2360821;56;26112;-78
2024/04/16 01:52:20;;;;;;;1.23;1.12;;;15.40;99.90;;;16.23;66.57;95394.00;2360867;56;26144;-76
2024/04/16 01:54:47;;;;;;;1.35;1.02;;;15.40;99.90;;;16.14;67.77;95393.00;2360924;56;27145;-74
2024/04/16 01:57:13;;;;;;;2.72;1.30;;;15.30;99.90;;;16.16;68.27;95394.00;2361070;56;26540;-79
2024/04/16 01:59:40;;;;;;;1.55;1.20;;;15.30;99.90;;;16.02;68.92;95388.00;2360904;56;26083;-78
2024/04/16 02:02:08;;;;;;;3.85;1.52;;;15.30;99.90;;;16.12;68.08;95385.00;2360744;56;26133;-76
2024/04/16 02:04:34;;;;;;;2.87;1.37;;;15.30;99.90;;;16.11;68.14;95386.00;2360826;56;26076;-76
2024/04/16 02:07:01;;;;;;;2.50;1.27;;;15.30;99.90;;;16.00;68.24;95378.00;2360580;56;26651;-76
2024/04/16 02:09:28;;;;;;;2.83;1.20;;;15.20;99.90;;;16.08;67.25;95365.00;2360722;56;26161;-78
2024/04/16 02:11:54;;;;;;;2.35;1.35;;;15.20;99.90;;;16.13;67.23;95378.00;2360770;56;26657;-79
2024/04/16 02:14:21;;;;;;;2.95;1.35;;;15.30;99.90;;;16.15;67.26;95376.00;2360133;56;26711;-78
2024/04/16 02:16:47;;;;;;;4.75;1.15;;;15.40;99.90;;;16.13;67.32;95379.00;2360167;56;26972;-76
2024/04/16 02:19:14;;;;;;;2.92;1.10;;;15.30;99.90;;;16.14;65.87;95374.00;2360563;56;26665;-79
2024/04/16 02:21:41;;;;;;;1.25;0.80;;;15.30;99.90;;;16.18;65.51;95362.00;2360010;56;26173;-76
2024/04/16 02:24:07;;;;;;;1.17;0.90;;;15.30;99.90;;;16.21;63.84;95364.00;2360409;56;26539;-78
2024/04/16 02:26:34;;;;;;;1.20;0.98;;;15.30;99.90;;;16.11;63.53;95359.00;2360437;56;26186;-75
2024/04/16 02:29:00;;;;;;;0.77;0.70;;;15.30;99.90;;;16.21;62.80;95359.00;2360385;56;26509;-79
2024/04/16 02:31:27;;;;;;;0.98;0.80;;;15.30;99.90;;;16.16;62.39;95372.00;2360572;56;26786;-75
2024/04/16 02:33:53;;;;;;;1.15;0.80;;;15.30;99.90;;;16.16;61.88;95362.00;2360756;56;26965;-75
2024/04/16 02:36:21;;;;;;;0.82;0.77;;;15.30;99.90;;;16.14;61.59;95358.00;2360496;56;26101;-77
2024/04/16 02:38:47;;;;;;;1.42;0.57;;;15.40;99.90;;;16.25;60.98;95360.00;2359314;56;26225;-76
2024/04/16 02:41:14;;;;;;;0.70;0.60;;;15.30;99.90;;;16.17;60.64;95355.00;2360021;56;26522;-79
2024/04/16 02:43:40;;;;;;;0.40;0.40;;;15.30;99.90;;;16.11;60.36;95351.00;2360046;56;26719;-78
2024/04/16 02:46:07;;;;;;;0.65;0.55;;;15.30;99.90;;;16.09;60.09;95356.00;2360136;56;26202;-77
2024/04/16 02:48:34;;;;;;;0.63;0.60;;;15.20;99.90;;;16.10;59.24;95347.00;2359627;56;26129;-76
2024/04/16 02:51:00;;;;;;;0.70;0.62;;;15.20;99.90;;;15.99;59.84;95354.00;2360395;56;26073;-77
2024/04/16 02:53:27;;;;;;;0.52;0.50;;;15.20;99.90;;;16.05;59.74;95371.00;2360228;56;26947;-76
2024/04/16 02:55:53;;;;;;;0.90;0.70;;;15.10;99.90;;;16.10;59.43;95358.00;2360178;56;26834;-76
2024/04/16 02:58:21;;;;;;;0.47;0.47;;;15.10;99.90;;;15.93;59.79;95357.00;2360649;56;26634;-75
2024/04/16 03:00:47;;;;;;;0.77;0.60;;;15.00;99.90;;;15.97;59.76;95354.00;2360359;56;26065;-77
2024/04/16 03:03:14;;;;;;;1.27;0.60;;;15.00;99.90;;;15.96;59.90;95355.00;2360258;56;26702;-77
2024/04/16 03:05:40;;;;;;;0.52;0.50;;;14.90;99.90;;;15.79;60.12;95359.00;2360322;56;26104;-76
2024/04/16 03:08:07;;;;;;;0.70;0.60;;;14.90;99.90;;;15.81;59.98;95360.00;2360274;56;26599;-77
2024/04/16 03:10:40;;;;;;;0.45;0.45;;;14.80;99.90;;;15.65;60.58;95363.00;2360102;56;26125;-77
2024/04/16 03:13:07;;;;;;;0.77;0.50;;;14.80;99.90;;;15.47;61.16;95364.00;2359857;56;26645;-79
2024/04/16 03:15:33;;;;;;;1.47;0.53;;;14.80;99.90;;;15.57;60.64;95366.00;2360143;56;26184;-77
2024/04/16 03:18:00;;;;;;;1.50;0.37;;;14.70;99.90;;;15.51;60.58;95362.00;2360926;56;26635;-76
2024/04/16 03:20:27;;;;;;;1.83;0.70;;;14.70;99.90;;;15.66;60.09;95369.00;2360557;56;26760;-75
2024/04/16 03:22:53;;;;;;;0.60;0.60;;;14.70;99.90;;;15.51;60.88;95364.00;2360429;56;26910;-77
2024/04/16 03:25:20;;;;;;;3.40;0.60;;;14.70;99.90;;;15.58;60.93;95362.00;2360715;56;26560;-76
2024/04/16 03:27:47;;;;;;;0.70;0.70;;;14.70;99.90;;;15.60;61.15;95361.00;2360171;56;26144;-77
2024/04/16 03:30:13;;;;;;;0.40;0.40;;;14.70;99.90;;;15.63;60.93;95334.00;2360380;56;26057;-74
2024/04/16 03:32:40;;;;;;;0.40;0.40;;;14.70;99.90;;;15.57;61.18;95344.00;2359594;56;26176;-78
2024/04/16 03:35:08;;;;;;;0.43;0.43;;;14.70;99.90;;;15.57;61.11;95340.00;2359793;56;26229;-77
2024/04/16 03:37:35;;;;;;;6.23;0.70;;;14.70;99.90;;;15.58;61.30;95344.00;2360182;56;26589;-78
2024/04/16 03:40:05;;;;;;;0.73;0.57;;;14.70;99.90;;;15.55;62.24;95352.00;2360160;56;26594;-77
2024/04/16 03:42:32;;;;;;;1.00;0.70;;;14.70;99.90;;;15.53;61.74;95348.00;2359852;56;26145;-77
2024/04/16 03:44:59;;;;;;;0.60;0.60;;;14.80;99.90;;;15.55;61.08;95339.00;2359567;56;26658;-78
2024/04/16 03:47:25;;;;;;;0.68;0.50;;;14.80;99.90;;;15.59;61.05;95334.00;2358573;56;26579;-77
2024/04/16 03:49:52;;;;;;;0.45;0.45;;;14.80;99.90;;;15.51;61.09;95329.00;2359944;56;26215;-78
2024/04/16 03:52:21;;;;;;;0.93;0.70;;;14.80;99.90;;;15.65;60.35;95324.00;2358965;56;26072;-77
2024/04/16 03:54:48;;;;;;;0.55;0.55;;;14.80;99.90;;;15.43;61.28;95320.00;2358960;56;27146;-76
2024/04/16 03:57:14;;;;;;;0.77;0.50;;;14.70;99.90;;;15.43;61.60;95328.00;2358637;56;26224;-78
2024/04/16 04:02:26;;;;;;;3.40;0.53;;;14.60;99.90;;;15.40;61.95;95329.00;2358884;56;26614;-78
2024/04/16 04:04:52;;;;;;;1.75;0.52;;;14.60;99.90;;;15.51;61.25;95332.00;2358583;56;26272;-78
2024/04/16 04:07:20;;;;;;;0.40;0.40;;;14.70;99.90;;;15.62;60.52;95325.00;2359047;56;26176;-77
2024/04/16 04:09:47;;;;;;;2.60;1.00;;;14.70;99.90;;;15.51;60.68;95332.00;2359805;56;26153;-78
2024/04/16 04:12:14;;;;;;;0.57;0.57;;;14.60;99.90;;;15.40;61.41;95329.00;2359507;56;26136;-76
2024/04/16 04:14:40;;;;;;;12.43;1.00;;;14.60;99.90;;;15.36;61.78;95327.00;2359712;56;26637;-79
2024/04/16 04:17:10;;;;;;;0.93;0.77;;;14.50;99.90;;;15.32;62.55;95321.00;2359262;56;26166;-76
2024/04/16 04:19:37;;;;;;;0.50;0.50;;;14.50;99.90;;;15.31;62.63;95328.00;2359795;56;26172;-75
2024/04/16 04:22:04;;;;;;;4.60;0.90;;;14.40;99.90;;;15.16;63.16;95326.00;2359878;56;26181;-75
2024/04/16 04:24:31;;;;;;;0.43;0.43;;;14.40;99.90;;;15.20;63.25;95325.00;2359690;56;26125;-77
2024/04/16 04:27:02;;;;;;;0.60;0.60;;;14.40;99.90;;;15.19;62.71;95329.00;2359798;56;26239;-77
2024/04/16 04:29:30;;;;;;;0.73;0.70;;;14.40;99.90;;;15.10;63.18;95325.00;2359544;56;26156;-78
2024/04/16 04:31:58;;;;;;;0.90;0.40;;;14.40;99.90;;;15.10;64.37;95325.00;2359250;56;26133;-78
2024/04/16 04:34:25;;;;;;;0.40;0.40;;;14.30;99.90;;;15.07;64.96;95318.00;2358844;56;26096;-78
2024/04/16 04:36:52;;;;;;;4.40;0.65;;;14.20;99.90;;;15.02;64.91;95322.00;2358253;56;26565;-75
2024/04/16 04:39:19;;;;;;;6.78;1.08;;;14.20;99.90;;;14.99;65.61;95315.00;2357755;56;26171;-78
2024/04/16 04:41:46;;;;;;;12.07;0.50;;;14.20;99.90;;;14.99;65.40;95318.00;2356124;56;26590;-79
2024/04/16 04:44:13;;;;;;;0.93;0.50;;;14.40;99.90;;;15.26;60.85;95322.00;2359105;56;26082;-78
2024/04/16 04:46:39;;;;;;;0.43;0.43;;;14.30;99.90;;;15.29;60.68;95324.00;2358754;56;26635;-76
2024/04/16 04:49:06;;;;;;;0.40;0.40;;;14.20;99.90;;;15.00;62.10;95315.00;2358705;56;26935;-77
2024/04/16 04:51:33;;;;;;;0.57;0.50;;;14.20;99.90;;;14.97;62.00;95321.00;2358043;56;26121;-75
2024/04/16 04:53:59;;;;;;;0.77;0.60;;;14.10;99.90;;;14.92;61.62;95321.00;2356835;56;26117;-76
2024/04/16 04:56:28;;;;;;;1.95;0.60;;;14.10;99.90;;;14.85;60.80;95318.00;2358561;56;26085;-79
2024/04/16 04:58:54;;;;;;;0.60;0.60;;;13.90;99.90;;;14.79;61.82;95330.00;2357950;56;26137;-76
2024/04/16 05:01:21;;;;;;;1.00;0.57;;;14.00;99.90;;;14.70;62.67;95336.00;2357996;56;26853;-75
2024/04/16 05:03:47;;;;;;;0.68;0.40;;;13.90;99.90;;;14.77;62.16;95329.00;2358741;56;26191;-76
2024/04/16 05:06:14;;;;;;;0.40;0.40;;;13.90;99.90;;;14.63;62.34;95337.00;2358329;56;26175;-77
2024/04/16 05:08:40;;;;;;;0.70;0.60;;;13.80;99.90;;;14.62;62.51;95339.00;2358774;56;26556;-74
2024/04/16 05:11:07;;;;;;;2.13;0.40;;;13.80;99.90;;;14.70;61.01;95337.00;2357417;56;26093;-76
2024/04/16 05:13:33;;;;;;;0.73;0.50;;;13.70;99.90;;;14.50;62.20;95339.00;2357991;56;26116;-75
2024/04/16 05:16:01;;;;;;;0.60;0.60;;;13.70;99.90;;;14.33;63.70;95346.00;2358265;56;26832;-76
2024/04/16 05:18:28;;;;;;;0.63;0.50;;;13.70;99.90;;;14.42;63.69;95342.00;2358499;56;26061;-78
2024/04/16 05:20:56;;;;;;;1.90;0.50;;;13.60;99.90;;;14.28;63.93;95347.00;2357790;56;26073;-77
2024/04/16 05:23:22;;;;;;;3.83;0.50;;;13.50;99.90;;;14.25;65.97;95350.00;2357881;56;26960;-76
2024/04/16 05:25:53;;;;;;;3.77;0.70;;;13.60;99.90;;;14.40;64.84;95341.00;2358110;56;26399;-77
2024/04/16 05:28:22;;;;;;;0.57;0.40;;;13.40;99.90;;;14.15;65.05;95338.00;2356229;56;26512;-77
2024/04/16 05:30:51;;;;;;;0.50;0.50;;;13.30;99.90;;;14.07;64.76;95337.00;2357676;56;26721;-75
2024/04/16 05:33:18;;;;;;;0.43;0.43;;;13.30;99.90;;;14.04;66.18;95343.00;2357708;56;26176;-77
2024/04/16 05:35:44;;;;;;;0.50;0.50;;;13.20;99.90;;;13.97;65.52;95338.00;2356898;56;26657;-76
2024/04/16 05:38:11;;;;;;;0.53;0.53;;;13.00;99.90;;;13.77;66.94;95341.00;2357793;56;26157;-78
2024/04/16 05:40:38;;;;;;;0.30;0.30;;;13.00;99.90;;;13.88;67.22;95340.00;2356426;56;27281;-77
2024/04/16 05:43:04;;;;;;;0.43;0.40;;;13.00;99.90;;;13.73;66.22;95341.00;2356955;56;26204;-77
2024/04/16 05:45:31;;;;;;;0.40;0.30;;;12.80;99.90;;;13.47;68.49;95343.00;2356805;56;26528;-75
2024/04/16 05:47:57;;;;;;;0.40;0.40;;;12.70;99.90;;;13.42;69.39;95348.00;2357760;56;26513;-75
2024/04/16 05:50:24;;;;;;;0.40;0.40;;;12.80;99.90;;;13.44;67.52;95354.00;2357437;56;26812;-78
2024/04/16 05:52:51;;;;;;;0.50;0.50;;;12.70;99.90;;;13.52;68.42;95347.00;2357638;56;26618;-75
2024/04/16 05:55:18;;;;;;;0.60;0.57;;;12.70;99.90;;;13.42;68.88;95354.00;2357870;56;26145;-75
2024/04/16 05:57:45;;;;;;;0.40;0.40;;;12.70;99.90;;;13.30;69.18;95344.00;2356789;56;26208;-77
2024/04/16 06:00:13;;;;;;;0.30;0.30;;;12.60;99.90;;;13.33;70.45;95338.00;2356840;56;26769;-75
2024/04/16 06:02:39;;;;;;;0.20;0.20;;;12.20;99.90;;;13.02;68.20;95337.00;2356538;56;26529;-76
2024/04/16 06:05:07;;;;;;;0.20;0.20;;;12.00;99.90;;;12.69;67.93;95349.00;2357327;56;26148;-80
2024/04/16 06:07:33;;;;;;;0.20;0.20;;;11.90;99.90;;;12.50;67.51;95352.00;2356775;56;26373;-79
2024/04/16 06:10:00;;;;;;;0.10;0.10;;;11.80;99.90;;;12.32;66.70;95355.00;2356371;56;26112;-79
2024/04/16 06:12:26;;;;;;;1.20;0.20;;;11.60;99.90;;;12.00;68.02;95362.00;2355758;56;26089;-78
2024/04/16 06:14:53;;;;;;;0.37;0.37;;;11.50;99.90;;;12.15;68.34;95371.00;2356694;56;26176;-79
2024/04/16 06:17:20;;;;;;;0.20;0.20;;;11.50;99.90;;;12.11;69.11;95374.00;2355111;56;26192;-79
2024/04/16 06:19:46;;;;;;;5.73;0.40;;;11.60;99.90;;;12.18;69.84;95371.00;2355305;56;26104;-76
2024/04/16 06:22:13;;;;;;;7.20;0.27;;;11.60;99.90;;;12.10;70.16;95380.00;2356515;56;26125;-76
2024/04/16 06:24:40;;;;;;;0.63;0.23;;;11.50;99.90;;;12.08;69.36;95379.00;2356305;56;26618;-76
2024/04/16 06:27:06;;;;;;;1.10;0.30;;;11.40;99.90;;;11.97;68.93;95386.00;2355455;56;26081;-79
2024/04/16 06:29:33;;;;;;;0.57;0.30;;;11.30;99.90;;;11.82;69.02;95391.00;2354622;56;26097;-79
2024/04/16 06:31:59;;;;;;;0.30;0.30;;;11.10;99.90;;;11.62;70.42;95406.00;2354321;56;26452;-77
2024/04/16 06:34:26;;;;;;;0.93;0.40;;;11.10;99.90;;;11.61;71.41;95410.00;2352588;56;26121;-76
2024/04/16 06:36:52;;;;;;;0.73;0.50;;;11.20;99.90;;;11.71;73.83;95420.00;2355668;56;26173;-78
2024/04/16 06:39:19;;;;;;;2.33;0.30;;;11.40;99.90;;;11.95;73.77;95430.00;2356837;56;26073;-78
2024/04/16 06:41:45;;;;;;;2.00;0.50;;;11.20;99.90;;;11.81;73.56;95446.00;2356156;56;26113;-77
2024/04/16 06:44:12;;;;;;;1.60;0.30;;;11.20;99.90;;;11.75;73.25;95446.00;2356477;56;26114;-76
2024/04/16 06:46:40;;;;;;;8.23;0.77;;;11.20;99.90;;;11.87;72.39;95427.00;2355663;56;26140;-77
2024/04/16 06:49:06;;;;;;;0.97;0.50;;;11.30;99.90;;;11.78;74.74;95439.00;2354905;56;26450;-76
2024/04/16 06:51:45;;;;;;;2.53;0.50;;;11.30;99.90;;;11.67;75.74;95451.00;2355648;56;26196;-76
2024/04/16 06:54:13;;;;;;;1.50;0.50;;;11.20;99.90;;;11.73;75.30;95464.00;2355526;56;26143;-77
2024/04/16 06:56:40;;;;;;;3.03;0.60;;;11.10;99.90;;;11.62;74.62;95460.00;2356800;56;26537;-76
2024/04/16 06:59:07;;;;;;;3.37;0.10;;;11.10;99.90;;;11.65;73.18;95448.00;2357503;56;26209;-76
2024/04/16 07:01:34;;;;;;;0.57;0.30;;;11.00;99.90;;;11.64;65.78;95465.00;2357209;56;26674;-79
2024/04/16 07:04:01;;;;;;;0.30;0.17;;;10.90;99.90;;;11.24;63.46;95470.00;2356759;56;26178;-78
2024/04/16 07:06:27;;;;;;;0.53;0.07;;;10.50;99.90;;;10.90;64.96;95461.00;2356944;56;26454;-78
2024/04/16 07:08:54;;;;;;;0.10;0.10;;;10.30;99.90;;;10.61;61.69;95458.00;2357443;56;26649;-76
2024/04/16 07:11:20;;;;;;;6.30;0.50;;;10.10;99.90;;;10.49;63.54;95473.00;2356017;56;26866;-74
2024/04/16 07:13:47;;;;;;;0.50;0.20;;;10.00;99.90;;;10.32;64.79;95482.00;2356977;56;26411;-75
2024/04/16 07:16:14;;;;;;;0.10;0.10;;;9.80;99.90;;;10.15;66.80;95490.00;2356124;56;27073;-75
2024/04/16 07:18:40;;;;;;;0.10;0.10;;;9.90;99.90;;;10.34;66.35;95498.00;2356960;56;26503;-73
2024/04/16 07:21:07;;;;;;;0.10;0.10;;;10.00;99.90;;;10.36;67.50;95512.00;2355401;56;26165;-75
2024/04/16 07:23:34;;;;;;;0.50;0.50;;;9.90;99.90;;;10.27;69.59;95517.00;2354283;56;26884;-76
2024/04/16 07:26:01;;;;;;;0.10;0.10;;;10.00;99.90;;;10.49;68.18;95509.00;2355617;56;26077;-74
2024/04/16 07:28:33;;;;;;;1.50;0.20;;;10.00;99.90;;;10.49;67.30;95508.00;2355716;56;26519;-74
2024/04/16 07:31:01;;;;;;;0.10;0.10;;;10.00;99.90;;;10.52;66.87;95521.00;2355733;56;26462;-74
2024/04/16 07:33:39;;;;;;;0.10;0.10;;;10.00;99.90;;;10.47;65.32;95521.00;2348715;55;26177;-76
2024/04/16 07:36:08;;;;;;;4.70;0.20;;;9.80;99.90;;;10.42;66.28;95525.00;2227399;60;26194;-76
2024/04/16 07:38:35;;;;;;;0.20;0.20;;;9.70;99.90;;;10.11;65.59;95539.00;2227042;60;26193;-76
2024/04/16 07:41:02;;;;;;;0.20;0.20;;;9.60;99.90;;;9.82;68.19;95542.00;2227323;60;26221;-76
2024/04/16 07:43:29;;;;;;;0.63;0.30;;;9.60;99.90;;;9.85;69.21;95528.00;2226057;60;26197;-76
2024/04/16 07:45:55;;;;;;;0.10;0.10;;;9.50;99.90;;;9.96;69.37;95521.00;2225250;60;26201;-76
2024/04/16 07:48:23;;;;;;;0.20;0.10;;;9.50;99.90;;;9.77;66.02;95531.00;2225352;60;26754;-76
2024/04/16 07:50:50;;;;;;;2.53;0.10;;;9.40;99.90;;;9.76;68.75;95524.00;2225290;60;26681;-76
2024/04/16 07:53:16;;;;;;;0.20;0.20;;;9.30;99.90;;;9.56;68.88;95545.00;2225212;60;26305;-76
2024/04/16 07:55:43;;;;;;;2.97;0.10;;;9.30;99.90;;;9.65;68.80;95569.00;2226317;60;26845;-76
2024/04/16 07:58:10;;;;;;;3.60;0.20;;;9.20;99.90;;;9.56;69.82;95567.00;2443228;56;26241;-76
2024/04/16 08:00:39;;;;;;;0.73;0.23;;;9.10;99.90;;;9.47;71.74;95568.00;2072053;60;10000048;-76
2024/04/16 08:03:07;;;;;;;0.20;0.20;;;9.20;99.90;;;9.60;66.40;95570.00;2072337;60;10000281;-76
2024/04/16 08:05:36;;;;;;;1.10;0.20;;;9.30;99.90;;;10.00;65.26;95581.00;2243016;56;26693;-76
2024/04/16 08:08:03;;;;;;;0.30;0.20;;;9.30;99.90;;;9.83;66.88;95566.00;2226783;60;26988;-76
2024/04/16 08:10:30;;;;;;;0.10;0.10;;;9.40;99.90;;;9.77;67.97;95579.00;2447863;56;26903;-75
2024/04/16 08:12:56;;;;;;;0.10;0.10;;;9.40;99.90;;;9.99;67.56;95573.00;2226267;60;26118;-76
2024/04/16 08:15:23;;;;;;;0.10;0.10;;;9.30;99.90;;;9.91;68.20;95585.00;2225434;60;26142;-76
2024/04/16 08:17:50;;;;;;;0.40;0.20;;;9.40;99.90;;;9.84;69.47;95603.00;2226404;60;26543;-76
2024/04/16 08:20:17;;;;;;;0.93;0.30;;;9.50;99.90;;;10.05;69.19;95616.00;2447860;56;26154;-76
2024/04/16 08:22:43;;;;;;;1.17;0.40;;;9.50;99.90;;;9.90;68.93;95591.00;2226258;60;26273;-76
2024/04/16 08:25:10;;;;;;;0.20;0.20;;;9.50;99.90;;;9.94;67.41;95587.00;2226502;60;26272;-76
2024/04/16 08:27:38;;;;;;;0.30;0.10;;;9.60;99.90;;;10.03;67.44;95573.00;2226638;60;26646;-76
2024/04/16 08:30:06;;;;;;;0.73;0.30;;;9.70;99.90;;;10.07;66.93;95599.00;1917914;60;10000246;-76
2024/04/16 08:32:32;;;;;;;0.37;0.37;;;9.70;99.90;;;10.29;69.60;95607.00;2226667;60;26130;-76
2024/04/16 08:34:59;;;;;;;0.33;0.30;;;9.60;99.90;;;10.14;69.23;95600.00;2227025;60;26520;-76
2024/04/16 08:37:29;;;;;;;0.20;0.20;;;9.60;99.90;;;10.18;68.68;95595.00;2225794;60;26182;-76
2024/04/16 08:39:56;;;;;;;0.10;0.10;;;9.60;99.90;;;10.14;68.52;95606.00;2449106;56;26264;-76
2024/04/16 08:42:25;;;;;;;0.10;0.10;;;9.60;99.90;;;10.25;67.44;95606.00;2442391;56;26661;-76
2024/04/16 08:44:53;;;;;;;0.10;0.10;;;9.50;99.90;;;10.09;67.86;95616.00;2226360;60;26134;-76
2024/04/16 08:47:23;;;;;;;2.17;0.20;;;9.50;99.90;;;10.01;67.99;95632.00;2226809;60;26118;-76
2024/04/16 08:49:52;;;;;;;0.17;0.17;;;9.40;99.90;;;9.93;67.47;95624.00;2228072;60;26118;-76
2024/04/16 08:52:21;;;;;;;0.60;0.40;;;9.50;99.90;;;9.98;69.51;95627.00;2448946;56;26206;-76
2024/04/16 08:54:52;;;;;;;2.53;0.53;;;9.60;99.90;;;10.12;69.44;95624.00;2225647;60;26189;-76
2024/04/16 08:57:20;;;;;;;1.17;0.27;;;9.60;99.90;;;10.13;69.09;95641.00;2227610;60;26098;-76
2024/04/16 08:59:47;;;;;;;1.20;0.40;;;9.70;99.90;;;10.15;68.23;95646.00;2226492;60;26134;-76
2024/04/16 09:02:16;;;;;;;0.40;0.20;;;9.80;99.90;;;10.42;68.87;95633.00;2226260;60;26157;-76
2024/04/16 09:04:44;;;;;;;0.20;0.20;;;9.90;99.90;;;10.58;67.35;95627.00;2225884;60;26236;-76
2024/04/16 09:07:15;;;;;;;0.20;0.20;;;10.00;99.90;;;10.61;66.81;95639.00;2224723;60;26899;-76
2024/04/16 09:09:42;;;;;;;0.20;0.20;;;10.10;99.90;;;10.79;66.64;95641.00;2226883;60;26444;-76
2024/04/16 09:12:11;;;;;;;0.23;0.20;;;10.20;99.90;;;10.66;66.11;95631.00;2226929;60;26170;-76
2024/04/16 09:14:38;;;;;;;0.63;0.10;;;10.10;99.90;;;10.63;67.32;95629.00;2226510;60;26601;-76
2024/04/16 09:17:05;;;;;;;0.67;0.20;;;10.00;99.90;;;10.44;66.12;95640.00;2227392;60;26122;-76
2024/04/16 09:19:31;;;;;;;2.70;0.20;;;10.00;99.90;;;10.73;66.60;95655.00;2226851;60;26604;-76
2024/04/16 09:21:59;;;;;;;0.10;0.10;;;10.10;99.90;;;10.76;67.83;95660.00;2227068;60;26230;-76
2024/04/16 09:24:25;;;;;;;0.10;0.10;;;10.20;99.90;;;10.57;66.82;95655.00;2227487;60;26697;-76
2024/04/16 09:26:52;;;;;;;0.80;0.50;;;10.20;99.90;;;10.78;66.99;95658.00;2227509;60;26733;-76
2024/04/16 09:29:25;;;;;;;1.27;0.70;;;10.30;99.90;;;10.94;68.45;95656.00;2227161;60;26198;-76
2024/04/16 09:32:02;;;;;;;1.50;0.63;;;10.40;99.90;;;10.97;67.04;95654.00;2226011;60;26552;-76
2024/04/16 09:34:29;;;;;;;0.20;0.20;;;10.30;99.90;;;10.68;68.03;95642.00;2226860;60;27256;-75
2024/04/16 09:36:56;;;;;;;0.20;0.20;;;10.30;99.90;;;10.66;67.78;95666.00;2226730;60;26122;-76
2024/04/16 09:39:24;;;;;;;0.40;0.30;;;10.20;99.90;;;10.87;67.75;95677.00;2225823;60;26537;-76
2024/04/16 09:41:52;;;;;;;0.30;0.30;;;10.20;99.90;;;10.88;68.21;95685.00;2226753;60;26234;-76
2024/04/16 09:44:19;;;;;;;0.50;0.20;;;10.20;99.90;;;10.67;66.41;95687.00;2226530;60;26154;-76
2024/04/16 09:46:47;;;;;;;0.20;0.20;;;10.10;99.90;;;10.74;66.94;95675.00;2223947;60;26690;-76
2024/04/16 09:49:21;;;;;;;0.30;0.30;;;10.10;99.90;;;10.65;67.69;95683.00;2226823;60;26257;-75
2024/04/16 09:51:49;;;;;;;0.33;0.30;;;10.00;99.90;;;10.58;66.74;95683.00;2225914;60;26234;-76
2024/04/16 09:54:16;;;;;;;0.43;0.43;;;10.00;99.90;;;10.67;66.83;95679.00;2226562;60;26535;-76
2024/04/16 09:56:47;;;;;;;0.90;0.30;;;9.90;99.90;;;10.56;66.37;95683.00;2226434;60;26110;-76
2024/04/16 09:59:16;;;;;;;3.73;0.30;;;9.90;99.90;;;10.49;68.68;95692.00;2225672;60;26134;-75
2024/04/16 10:01:45;;;;;;;0.20;0.20;;;9.90;99.90;;;10.62;68.22;95681.00;2225671;60;26173;-76
2024/04/16 10:04:12;;;;;;;1.60;0.40;;;9.90;99.90;;;10.39;68.98;95672.00;2224118;60;26162;-76
2024/04/16 10:06:40;;;;;;;0.63;0.40;;;9.90;99.90;;;10.41;67.95;95664.00;2223483;60;26681;-76
2024/04/16 10:09:07;;;;;;;0.57;0.50;;;9.80;99.90;;;10.37;69.78;95678.00;2221324;60;26190;-76
2024/04/16 10:11:34;;;;;;;0.50;0.43;;;9.90;99.90;;;10.57;69.67;95684.00;2223881;60;26157;-76
2024/04/16 10:14:01;;;;;;;0.40;0.40;;;10.00;99.90;;;10.55;68.70;95681.00;2235523;56;26199;-76
2024/04/16 10:16:28;;;;;;;0.97;0.30;;;10.00;99.90;;;10.54;68.63;95685.00;2225347;60;26710;-75
2024/04/16 10:18:56;;;;;;;0.10;0.10;;;10.00;99.90;;;10.70;67.31;95675.00;2224884;60;26600;-76
2024/04/16 10:21:24;;;;;;;0.27;0.20;;;10.00;99.90;;;10.53;66.70;95693.00;2448248;56;26222;-76
2024/04/16 10:24:02;;;;;;;0.10;0.10;;;10.10;99.90;;;10.78;67.20;95690.00;2224332;60;26438;-76